sensor_id;sensor_type;location;lat;lon;timestamp;pressure;altitude;pressure_sealevel;temperature;humidity
45403;BME280;47427;51.976;5.326;2023-09-19T00:03:00;100660.16;;;14.41;100.00
45403;BME280;47427;51.976;5.326;2023-09-19T00:06:05;100669.88;;;14.49;100.00
45403;BME280;47427;51.976;5.326;2023-09-19T00:09:10;100663.66;;;14.43;100.00
45403;BME280;47427;51.976;5.326;2023-09-19T00:12:13;100668.94;;;14.40;100.00
45403;BME280;47427;51.976;5.326;2023-09-19T00:15:16;100672.44;;;14.37;100.00
45403;BME280;47427;51.976;5.326;2023-09-19T00:18:20;100671.59;;;14.41;100.00
45403;BME280;47427;51.976;5.326;2023-09-19T00:21:24;100682.13;;;14.38;100.00
45403;BME280;47427;51.976;5.326;2023-09-19T00:24:25;100682.06;;;14.30;100.00
45403;BME280;47427;51.976;5.326;2023-09-19T00:27:30;100678.59;;;14.39;100.00
45403;BME280;47427;51.976;5.326;2023-09-19T00:30:36;100683.97;;;14.50;100.00
45403;BME280;47427;51.976;5.326;2023-09-19T00:33:40;100688.47;;;14.59;100.00
45403;BME280;47427;51.976;5.326;2023-09-19T00:36:42;100692.03;;;14.65;100.00
45403;BME280;47427;51.976;5.326;2023-09-19T00:39:45;100685.84;;;14.59;100.00
45403;BME280;47427;51.976;5.326;2023-09-19T00:42:50;100689.97;;;14.32;100.00
45403;BME280;47427;51.976;5.326;2023-09-19T00:45:55;100692.50;;;14.20;100.00
45403;BME280;47427;51.976;5.326;2023-09-19T00:48:57;100696.03;;;14.19;100.00
45403;BME280;47427;51.976;5.326;2023-09-19T00:51:59;100689.09;;;14.31;100.00
45403;BME280;47427;51.976;5.326;2023-09-19T00:55:04;100703.31;;;14.50;100.00
45403;BME280;47427;51.976;5.326;2023-09-19T00:58:08;100701.69;;;14.59;100.00
45403;BME280;47427;51.976;5.326;2023-09-19T01:01:12;100703.53;;;14.73;100.00
45403;BME280;47427;51.976;5.326;2023-09-19T01:04:17;100708.84;;;14.78;100.00
45403;BME280;47427;51.976;5.326;2023-09-19T01:07:20;100705.34;;;14.79;100.00
45403;BME280;47427;51.976;5.326;2023-09-19T01:10:25;100711.53;;;14.84;100.00
45403;BME280;47427;51.976;5.326;2023-09-19T01:14:53;100721.19;;;14.82;100.00
45403;BME280;47427;51.976;5.326;2023-09-19T01:17:27;100709.69;;;14.72;100.00
45403;BME280;47427;51.976;5.326;2023-09-19T01:20:55;100711.38;;;14.63;100.00
45403;BME280;47427;51.976;5.326;2023-09-19T01:27:21;100723.56;;;14.50;100.00
45403;BME280;47427;51.976;5.326;2023-09-19T01:30:27;100726.06;;;14.35;100.00
45403;BME280;47427;51.976;5.326;2023-09-19T01:37:01;100720.50;;;14.01;100.00
45403;BME280;47427;51.976;5.326;2023-09-19T01:40:07;100722.16;;;13.94;100.00
45403;BME280;47427;51.976;5.326;2023-09-19T01:43:31;100734.38;;;13.84;100.00
45403;BME280;47427;51.976;5.326;2023-09-19T01:46:40;100730.81;;;13.78;100.00
45403;BME280;47427;51.976;5.326;2023-09-19T01:49:54;100725.38;;;13.67;100.00
45403;BME280;47427;51.976;5.326;2023-09-19T01:53:22;100740.31;;;13.66;100.00
45403;BME280;47427;51.976;5.326;2023-09-19T02:00:07;100742.91;;;13.60;100.00
45403;BME280;47427;51.976;5.326;2023-09-19T02:03:17;100739.25;;;13.51;100.00
45403;BME280;47427;51.976;5.326;2023-09-19T02:06:21;100740.97;;;13.47;100.00
45403;BME280;47427;51.976;5.326;2023-09-19T02:09:27;100747.03;;;13.40;100.00
45403;BME280;47427;51.976;5.326;2023-09-19T02:12:29;100747.88;;;13.39;100.00
45403;BME280;47427;51.976;5.326;2023-09-19T02:15:33;100745.19;;;13.33;100.00
45403;BME280;47427;51.976;5.326;2023-09-19T02:18:37;100739.03;;;13.32;100.00
45403;BME280;47427;51.976;5.326;2023-09-19T02:21:39;100734.47;;;13.23;100.00
45403;BME280;47427;51.976;5.326;2023-09-19T02:24:42;100737.03;;;13.17;100.00
45403;BME280;47427;51.976;5.326;2023-09-19T02:27:45;100738.78;;;13.17;100.00
45403;BME280;47427;51.976;5.326;2023-09-19T02:30:49;100740.47;;;13.13;100.00
45403;BME280;47427;51.976;5.326;2023-09-19T02:33:52;100746.53;;;13.06;100.00
45403;BME280;47427;51.976;5.326;2023-09-19T02:36:56;100747.38;;;13.04;100.00
45403;BME280;47427;51.976;5.326;2023-09-19T02:39:58;100745.50;;;12.95;100.00
45403;BME280;47427;51.976;5.326;2023-09-19T02:43:01;100751.56;;;12.91;100.00
45403;BME280;47427;51.976;5.326;2023-09-19T02:46:04;100750.66;;;12.87;100.00
45403;BME280;47427;51.976;5.326;2023-09-19T02:49:08;100761.94;;;12.80;100.00
45403;BME280;47427;51.976;5.326;2023-09-19T02:52:10;100761.91;;;12.77;100.00
45403;BME280;47427;51.976;5.326;2023-09-19T02:55:14;100779.44;;;12.76;100.00
45403;BME280;47427;51.976;5.326;2023-09-19T02:58:20;100762.69;;;12.73;100.00
45403;BME280;47427;51.976;5.326;2023-09-19T03:01:22;100767.03;;;12.69;100.00
45403;BME280;47427;51.976;5.326;2023-09-19T03:04:24;100767.09;;;12.72;100.00
45403;BME280;47427;51.976;5.326;2023-09-19T03:07:28;100768.72;;;12.64;100.00
45403;BME280;47427;51.976;5.326;2023-09-19T03:10:31;100767.78;;;12.62;100.00
45403;BME280;47427;51.976;5.326;2023-09-19T03:13:34;100764.28;;;12.62;100.00
45403;BME280;47427;51.976;5.326;2023-09-19T03:16:38;100759.91;;;12.62;100.00
45403;BME280;47427;51.976;5.326;2023-09-19T03:19:41;100756.28;;;12.54;100.00
45403;BME280;47427;51.976;5.326;2023-09-19T03:22:45;100756.34;;;12.58;100.00
45403;BME280;47427;51.976;5.326;2023-09-19T03:25:48;100744.06;;;12.59;100.00
45403;BME280;47427;51.976;5.326;2023-09-19T03:28:51;100762.44;;;12.57;100.00
45403;BME280;47427;51.976;5.326;2023-09-19T03:31:54;100751.94;;;12.57;100.00
45403;BME280;47427;51.976;5.326;2023-09-19T03:34:57;100766.88;;;12.58;100.00
45403;BME280;47427;51.976;5.326;2023-09-19T03:37:59;100774.78;;;12.58;100.00
45403;BME280;47427;51.976;5.326;2023-09-19T03:41:03;100762.44;;;12.57;100.00
45403;BME280;47427;51.976;5.326;2023-09-19T03:44:04;100758.03;;;12.55;100.00
45403;BME280;47427;51.976;5.326;2023-09-19T03:47:08;100740.56;;;12.60;100.00
45403;BME280;47427;51.976;5.326;2023-09-19T03:50:11;100740.56;;;12.60;100.00
45403;BME280;47427;51.976;5.326;2023-09-19T03:53:14;100747.50;;;12.55;100.00
45403;BME280;47427;51.976;5.326;2023-09-19T03:56:16;100763.31;;;12.56;100.00
45403;BME280;47427;51.976;5.326;2023-09-19T03:59:19;100754.56;;;12.56;100.00
45403;BME280;47427;51.976;5.326;2023-09-19T04:02:24;100755.41;;;12.55;100.00
45403;BME280;47427;51.976;5.326;2023-09-19T04:05:27;100760.66;;;12.55;100.00
45403;BME280;47427;51.976;5.326;2023-09-19T04:08:29;100773.81;;;12.53;100.00
45403;BME280;47427;51.976;5.326;2023-09-19T04:11:32;100779.91;;;12.51;100.00
45403;BME280;47427;51.976;5.326;2023-09-19T04:14:35;100785.16;;;12.51;100.00
45403;BME280;47427;51.976;5.326;2023-09-19T04:17:38;100779.91;;;12.51;100.00
45403;BME280;47427;51.976;5.326;2023-09-19T04:20:40;100782.44;;;12.46;100.00
45403;BME280;47427;51.976;5.326;2023-09-19T04:23:43;100789.38;;;12.43;100.00
45403;BME280;47427;51.976;5.326;2023-09-19T04:26:46;100800.00;;;12.47;100.00
45403;BME280;47427;51.976;5.326;2023-09-19T04:30:08;100801.75;;;12.47;100.00
45403;BME280;47427;51.976;5.326;2023-09-19T04:33:14;100808.22;;;12.66;100.00
45403;BME280;47427;51.976;5.326;2023-09-19T04:36:17;100812.69;;;12.70;100.00
45403;BME280;47427;51.976;5.326;2023-09-19T04:39:20;100814.44;;;12.69;100.00
45403;BME280;47427;51.976;5.326;2023-09-19T04:42:23;100820.41;;;12.61;100.00
45403;BME280;47427;51.976;5.326;2023-09-19T04:45:28;100823.72;;;12.50;100.00
45403;BME280;47427;51.976;5.326;2023-09-19T04:48:30;100821.06;;;12.47;100.00
45403;BME280;47427;51.976;5.326;2023-09-19T04:51:34;100814.88;;;12.44;100.00
45403;BME280;47427;51.976;5.326;2023-09-19T04:54:38;100819.31;;;12.48;100.00
45403;BME280;47427;51.976;5.326;2023-09-19T04:57:41;100829.78;;;12.45;100.00
45403;BME280;47427;51.976;5.326;2023-09-19T05:00:43;100825.34;;;12.41;100.00
45403;BME280;47427;51.976;5.326;2023-09-19T05:03:46;100823.59;;;12.43;100.00
45403;BME280;47427;51.976;5.326;2023-09-19T05:06:54;100820.81;;;12.35;100.00
45403;BME280;47427;51.976;5.326;2023-09-19T05:09:56;100827.06;;;12.39;100.00
45403;BME280;47427;51.976;5.326;2023-09-19T05:12:59;100823.50;;;12.36;100.00
45403;BME280;47427;51.976;5.326;2023-09-19T05:16:01;100815.63;;;12.38;100.00
45403;BME280;47427;51.976;5.326;2023-09-19T05:19:05;100823.59;;;12.43;100.00
45403;BME280;47427;51.976;5.326;2023-09-19T05:22:07;100828.94;;;12.46;100.00
45403;BME280;47427;51.976;5.326;2023-09-19T05:25:10;100833.41;;;12.51;100.00
45403;BME280;47427;51.976;5.326;2023-09-19T05:28:13;100831.66;;;12.52;100.00
45403;BME280;47427;51.976;5.326;2023-09-19T05:31:17;100833.50;;;12.57;100.00
45403;BME280;47427;51.976;5.326;2023-09-19T05:34:19;100830.09;;;12.63;100.00
45403;BME280;47427;51.976;5.326;2023-09-19T05:37:22;100829.41;;;12.73;100.00
45403;BME280;47427;51.976;5.326;2023-09-19T05:40:26;100822.41;;;12.74;100.00
45403;BME280;47427;51.976;5.326;2023-09-19T05:43:29;100832.16;;;12.81;100.00
45403;BME280;47427;51.976;5.326;2023-09-19T05:46:32;100825.09;;;12.77;100.00
45403;BME280;47427;51.976;5.326;2023-09-19T05:49:35;100823.38;;;12.80;100.00
45403;BME280;47427;51.976;5.326;2023-09-19T05:52:40;100812.84;;;12.80;100.00
45403;BME280;47427;51.976;5.326;2023-09-19T05:55:45;100823.50;;;12.88;100.00
45403;BME280;47427;51.976;5.326;2023-09-19T05:58:48;100818.28;;;12.90;100.00
45403;BME280;47427;51.976;5.326;2023-09-19T06:01:52;100829.75;;;12.95;100.00
45403;BME280;47427;51.976;5.326;2023-09-19T06:04:55;100840.47;;;13.04;100.00
45403;BME280;47427;51.976;5.326;2023-09-19T06:07:58;100842.31;;;13.11;100.00
45403;BME280;47427;51.976;5.326;2023-09-19T06:11:10;100849.53;;;13.23;100.00
45403;BME280;47427;51.976;5.326;2023-09-19T06:14:13;100845.25;;;13.28;100.00
45403;BME280;47427;51.976;5.326;2023-09-19T06:17:17;100840.22;;;13.45;100.00
45403;BME280;47427;51.976;5.326;2023-09-19T06:20:23;100847.44;;;13.58;100.00
45403;BME280;47427;51.976;5.326;2023-09-19T06:23:26;100855.44;;;13.66;100.00
45403;BME280;47427;51.976;5.326;2023-09-19T06:26:31;100848.56;;;13.77;100.00
45403;BME280;47427;51.976;5.326;2023-09-19T06:29:34;100846.03;;;13.85;100.00
45403;BME280;47427;51.976;5.326;2023-09-19T06:32:38;100848.75;;;13.91;100.00
45403;BME280;47427;51.976;5.326;2023-09-19T06:35:41;100852.41;;;14.04;100.00
45403;BME280;47427;51.976;5.326;2023-09-19T06:38:43;100842.94;;;14.18;100.00
45403;BME280;47427;51.976;5.326;2023-09-19T06:41:46;100845.69;;;14.32;100.00
45403;BME280;47427;51.976;5.326;2023-09-19T06:44:49;100850.16;;;14.38;100.00
45403;BME280;47427;51.976;5.326;2023-09-19T06:47:52;100856.44;;;14.50;100.00
45403;BME280;47427;51.976;5.326;2023-09-19T06:50:58;100850.41;;;14.59;100.00
45403;BME280;47427;51.976;5.326;2023-09-19T06:54:05;100845.22;;;14.70;100.00
45403;BME280;47427;51.976;5.326;2023-09-19T06:57:08;100848.94;;;14.90;100.00
45403;BME280;47427;51.976;5.326;2023-09-19T07:00:14;100851.66;;;15.00;100.00
45403;BME280;47427;51.976;5.326;2023-09-19T07:03:23;100854.50;;;15.27;100.00
45403;BME280;47427;51.976;5.326;2023-09-19T07:06:28;100840.75;;;15.79;100.00
45403;BME280;47427;51.976;5.326;2023-09-19T07:09:31;100852.38;;;16.19;99.78
45403;BME280;47427;51.976;5.326;2023-09-19T07:12:34;100856.88;;;16.62;97.06
45403;BME280;47427;51.976;5.326;2023-09-19T07:15:37;100863.13;;;16.95;94.32
45403;BME280;47427;51.976;5.326;2023-09-19T07:18:43;100860.44;;;17.45;91.03
45403;BME280;47427;51.976;5.326;2023-09-19T07:21:48;100866.53;;;17.90;89.15
45403;BME280;47427;51.976;5.326;2023-09-19T07:24:52;100872.69;;;18.03;86.49
45403;BME280;47427;51.976;5.326;2023-09-19T07:27:58;100878.94;;;17.88;87.65
45403;BME280;47427;51.976;5.326;2023-09-19T07:31:03;100889.31;;;18.40;85.50
45403;BME280;47427;51.976;5.326;2023-09-19T07:34:07;100877.78;;;18.45;85.02
45403;BME280;47427;51.976;5.326;2023-09-19T07:37:11;100875.19;;;18.34;84.40
45403;BME280;47427;51.976;5.326;2023-09-19T07:40:15;100880.44;;;18.46;83.36
45403;BME280;47427;51.976;5.326;2023-09-19T07:43:18;100880.28;;;18.72;81.30
45403;BME280;47427;51.976;5.326;2023-09-19T07:46:21;100900.94;;;19.51;78.99
45403;BME280;47427;51.976;5.326;2023-09-19T07:49:24;100880.22;;;19.82;75.33
45403;BME280;47427;51.976;5.326;2023-09-19T07:52:26;100896.91;;;20.67;72.88
45403;BME280;47427;51.976;5.326;2023-09-19T07:55:30;100879.28;;;20.57;73.59
45403;BME280;47427;51.976;5.326;2023-09-19T07:58:51;100873.84;;;20.63;72.84
45403;BME280;47427;51.976;5.326;2023-09-19T08:01:53;100888.97;;;20.64;70.83
45403;BME280;47427;51.976;5.326;2023-09-19T08:04:56;100876.03;;;20.33;72.13
45403;BME280;47427;51.976;5.326;2023-09-19T08:08:01;100871.47;;;21.55;71.42
45403;BME280;47427;51.976;5.326;2023-09-19T08:11:05;100884.72;;;22.04;69.02
45403;BME280;47427;51.976;5.326;2023-09-19T08:14:14;100887.88;;;21.81;68.04
45403;BME280;47427;51.976;5.326;2023-09-19T08:17:16;100880.28;;;21.60;67.00
45403;BME280;47427;51.976;5.326;2023-09-19T08:20:19;100885.31;;;22.20;66.13
45403;BME280;47427;51.976;5.326;2023-09-19T08:23:23;100897.53;;;22.72;63.85
45403;BME280;47427;51.976;5.326;2023-09-19T08:26:26;100902.59;;;22.85;62.76
45403;BME280;47427;51.976;5.326;2023-09-19T08:29:29;100924.94;;;23.21;59.96
45403;BME280;47427;51.976;5.326;2023-09-19T08:32:32;100887.00;;;22.26;64.16
45403;BME280;47427;51.976;5.326;2023-09-19T08:35:36;100876.97;;;21.47;65.42
45403;BME280;47427;51.976;5.326;2023-09-19T08:38:40;100867.97;;;21.00;67.24
45403;BME280;47427;51.976;5.326;2023-09-19T08:41:42;100892.19;;;22.34;64.27
45403;BME280;47427;51.976;5.326;2023-09-19T08:44:45;100915.16;;;23.89;61.12
45403;BME280;47427;51.976;5.326;2023-09-19T08:51:30;100974.25;;;25.36;52.83
45403;BME280;47427;51.976;5.326;2023-09-19T08:54:38;100960.56;;;25.15;53.29
45403;BME280;47427;51.976;5.326;2023-09-19T08:57:41;100946.59;;;24.15;54.48
45403;BME280;47427;51.976;5.326;2023-09-19T09:00:46;100953.63;;;25.36;53.08
45403;BME280;47427;51.976;5.326;2023-09-19T09:03:55;100927.31;;;23.68;55.42
45403;BME280;47427;51.976;5.326;2023-09-19T09:06:57;100852.09;;;21.43;61.34
45403;BME280;47427;51.976;5.326;2023-09-19T09:10:03;100804.53;;;20.63;66.45
45403;BME280;47427;51.976;5.326;2023-09-19T09:13:06;100888.28;;;22.86;59.78
45403;BME280;47427;51.976;5.326;2023-09-19T09:16:10;100889.53;;;22.32;60.93
45403;BME280;47427;51.976;5.326;2023-09-19T09:19:11;100853.88;;;21.45;62.68
45403;BME280;47427;51.976;5.326;2023-09-19T09:22:15;100856.97;;;22.12;62.81
45403;BME280;47427;51.976;5.326;2023-09-19T09:25:19;100944.88;;;25.01;53.57
45403;BME280;47427;51.976;5.326;2023-09-19T09:28:28;100988.13;;;26.97;49.16
45403;BME280;47427;51.976;5.326;2023-09-19T09:31:30;101020.00;;;28.17;44.89
45403;BME280;47427;51.976;5.326;2023-09-19T09:34:33;101059.97;;;29.27;42.46
45403;BME280;47427;51.976;5.326;2023-09-19T09:37:36;101090.25;;;29.52;39.12
45403;BME280;47427;51.976;5.326;2023-09-19T09:40:51;101066.19;;;30.54;38.81
45403;BME280;47427;51.976;5.326;2023-09-19T09:44:16;101104.09;;;31.04;36.89
45403;BME280;47427;51.976;5.326;2023-09-19T09:50:51;101028.16;;;27.95;40.41
45403;BME280;47427;51.976;5.326;2023-09-19T09:54:17;101024.19;;;27.39;42.01
45403;BME280;47427;51.976;5.326;2023-09-19T09:57:19;100985.31;;;27.66;42.92
45403;BME280;47427;51.976;5.326;2023-09-19T10:00:24;100980.72;;;26.08;44.95
45403;BME280;47427;51.976;5.326;2023-09-19T10:03:36;100931.22;;;25.62;47.02
45403;BME280;47427;51.976;5.326;2023-09-19T10:06:41;101011.41;;;29.25;40.75
45403;BME280;47427;51.976;5.326;2023-09-19T10:09:52;101069.84;;;29.83;38.05
45403;BME280;47427;51.976;5.326;2023-09-19T10:12:55;101080.66;;;29.64;37.90
45403;BME280;47427;51.976;5.326;2023-09-19T10:16:06;101034.25;;;26.88;42.27
45403;BME280;47427;51.976;5.326;2023-09-19T10:19:36;100942.41;;;24.67;48.21
45403;BME280;47427;51.976;5.326;2023-09-19T10:22:41;100882.47;;;24.07;50.62
45403;BME280;47427;51.976;5.326;2023-09-19T10:25:44;100857.66;;;24.30;51.11
45403;BME280;47427;51.976;5.326;2023-09-19T10:28:50;100912.38;;;26.37;47.05
45403;BME280;47427;51.976;5.326;2023-09-19T10:31:55;100914.50;;;26.76;46.48
45403;BME280;47427;51.976;5.326;2023-09-19T10:35:02;100928.19;;;26.47;45.87
45403;BME280;47427;51.976;5.326;2023-09-19T10:38:07;100954.97;;;27.19;43.49
45403;BME280;47427;51.976;5.326;2023-09-19T10:41:14;100944.72;;;26.83;44.46
45403;BME280;47427;51.976;5.326;2023-09-19T10:44:26;100964.91;;;28.81;41.46
45403;BME280;47427;51.976;5.326;2023-09-19T10:47:29;100994.25;;;28.88;40.50
45403;BME280;47427;51.976;5.326;2023-09-19T10:50:46;100937.25;;;27.12;42.97
45403;BME280;47427;51.976;5.326;2023-09-19T10:54:01;100853.34;;;24.82;48.72
45403;BME280;47427;51.976;5.326;2023-09-19T10:57:09;100887.56;;;25.30;47.41
45403;BME280;47427;51.976;5.326;2023-09-19T11:00:12;100930.22;;;27.72;42.28
45403;BME280;47427;51.976;5.326;2023-09-19T11:03:27;100995.34;;;30.28;38.99
45403;BME280;47427;51.976;5.326;2023-09-19T11:06:32;100981.22;;;28.19;40.97
45403;BME280;47427;51.976;5.326;2023-09-19T11:09:51;100922.59;;;27.20;43.81
45403;BME280;47427;51.976;5.326;2023-09-19T11:12:57;100872.50;;;26.49;44.70
45403;BME280;47427;51.976;5.326;2023-09-19T11:19:03;100808.97;;;25.74;47.86
45403;BME280;47427;51.976;5.326;2023-09-19T11:22:05;100825.69;;;25.34;47.93
45403;BME280;47427;51.976;5.326;2023-09-19T11:28:32;100891.75;;;27.69;42.79
45403;BME280;47427;51.976;5.326;2023-09-19T11:31:44;100929.13;;;28.76;40.13
45403;BME280;47427;51.976;5.326;2023-09-19T11:34:47;100929.31;;;28.33;39.83
45403;BME280;47427;51.976;5.326;2023-09-19T11:47:34;100966.00;;;29.86;36.59
45403;BME280;47427;51.976;5.326;2023-09-19T11:50:38;100933.78;;;28.34;38.66
45403;BME280;47427;51.976;5.326;2023-09-19T11:54:04;100918.03;;;26.99;40.77
45403;BME280;47427;51.976;5.326;2023-09-19T11:57:20;100874.72;;;25.65;43.78
45403;BME280;47427;51.976;5.326;2023-09-19T12:00:24;100840.72;;;24.28;47.64
45403;BME280;47427;51.976;5.326;2023-09-19T12:03:29;100783.63;;;23.96;49.47
45403;BME280;47427;51.976;5.326;2023-09-19T12:06:31;100758.28;;;23.46;50.42
45403;BME280;47427;51.976;5.326;2023-09-19T12:09:42;100744.50;;;22.60;52.52
45403;BME280;47427;51.976;5.326;2023-09-19T12:12:52;100733.63;;;22.32;53.61
45403;BME280;47427;51.976;5.326;2023-09-19T12:15:55;100735.09;;;22.06;54.46
45403;BME280;47427;51.976;5.326;2023-09-19T12:18:58;100699.16;;;21.80;55.53
45403;BME280;47427;51.976;5.326;2023-09-19T12:22:19;100690.25;;;21.38;57.58
45403;BME280;47427;51.976;5.326;2023-09-19T12:25:25;100691.16;;;21.38;58.26
45403;BME280;47427;51.976;5.326;2023-09-19T12:28:28;100672.91;;;21.15;58.73
45403;BME280;47427;51.976;5.326;2023-09-19T12:31:33;100656.66;;;20.83;59.75
45403;BME280;47427;51.976;5.326;2023-09-19T12:34:39;100666.03;;;20.59;61.19
45403;BME280;47427;51.976;5.326;2023-09-19T12:37:45;100669.75;;;20.47;61.62
45403;BME280;47427;51.976;5.326;2023-09-19T12:40:52;100673.66;;;20.26;63.24
45403;BME280;47427;51.976;5.326;2023-09-19T12:43:54;100694.97;;;20.24;64.10
45403;BME280;47427;51.976;5.326;2023-09-19T12:46:57;100715.94;;;20.46;63.79
45403;BME280;47427;51.976;5.326;2023-09-19T12:53:26;100734.94;;;20.78;63.32
45403;BME280;47427;51.976;5.326;2023-09-19T12:56:40;100760.81;;;20.73;63.00
45403;BME280;47427;51.976;5.326;2023-09-19T12:59:53;100740.78;;;20.48;64.21
45403;BME280;47427;51.976;5.326;2023-09-19T13:06:36;100751.81;;;20.25;65.08
45403;BME280;47427;51.976;5.326;2023-09-19T13:09:39;100756.91;;;20.40;65.68
45403;BME280;47427;51.976;5.326;2023-09-19T13:12:43;100754.16;;;20.46;65.48
45403;BME280;47427;51.976;5.326;2023-09-19T13:15:53;100754.63;;;20.14;66.24
45403;BME280;47427;51.976;5.326;2023-09-19T13:18:56;100759.16;;;20.10;66.22
45403;BME280;47427;51.976;5.326;2023-09-19T13:22:02;100762.50;;;20.22;66.47
45403;BME280;47427;51.976;5.326;2023-09-19T13:25:13;100775.34;;;20.54;65.98
45403;BME280;47427;51.976;5.326;2023-09-19T13:28:38;100770.81;;;20.61;65.43
45403;BME280;47427;51.976;5.326;2023-09-19T13:31:42;100764.47;;;20.68;65.58
45403;BME280;47427;51.976;5.326;2023-09-19T13:34:45;100766.34;;;20.63;65.22
45403;BME280;47427;51.976;5.326;2023-09-19T13:37:48;100770.97;;;21.94;61.54
45403;BME280;47427;51.976;5.326;2023-09-19T13:40:54;100787.41;;;23.25;57.71
45403;BME280;47427;51.976;5.326;2023-09-19T13:43:55;100779.38;;;22.91;57.86
45403;BME280;47427;51.976;5.326;2023-09-19T13:46:59;100758.38;;;22.40;59.52
45403;BME280;47427;51.976;5.326;2023-09-19T13:50:05;100744.69;;;21.74;60.50
45403;BME280;47427;51.976;5.326;2023-09-19T13:53:08;100727.72;;;21.32;63.10
45403;BME280;47427;51.976;5.326;2023-09-19T13:56:10;100736.34;;;21.48;62.06
45403;BME280;47427;51.976;5.326;2023-09-19T13:59:13;100730.75;;;21.60;62.69
45403;BME280;47427;51.976;5.326;2023-09-19T14:02:16;100729.53;;;21.31;62.72
45403;BME280;47427;51.976;5.326;2023-09-19T14:05:20;100722.81;;;21.10;64.03
45403;BME280;47427;51.976;5.326;2023-09-19T14:08:22;100719.22;;;20.63;65.20
45403;BME280;47427;51.976;5.326;2023-09-19T14:11:26;100747.22;;;20.33;65.76
45403;BME280;47427;51.976;5.326;2023-09-19T14:14:29;100728.19;;;20.02;67.22
45403;BME280;47427;51.976;5.326;2023-09-19T14:17:32;100746.88;;;19.97;66.33
45403;BME280;47427;51.976;5.326;2023-09-19T14:20:38;100739.22;;;19.76;67.25
45403;BME280;47427;51.976;5.326;2023-09-19T14:23:44;100746.34;;;19.72;68.33
45403;BME280;47427;51.976;5.326;2023-09-19T14:26:49;100737.47;;;19.72;68.50
45403;BME280;47427;51.976;5.326;2023-09-19T14:29:52;100738.19;;;19.86;68.60
45403;BME280;47427;51.976;5.326;2023-09-19T14:32:54;100737.41;;;19.78;68.44
45403;BME280;47427;51.976;5.326;2023-09-19T14:35:57;100738.13;;;19.90;68.98
45403;BME280;47427;51.976;5.326;2023-09-19T14:38:59;100731.94;;;19.88;68.61
45403;BME280;47427;51.976;5.326;2023-09-19T14:42:02;100736.34;;;19.89;69.72
45403;BME280;47427;51.976;5.326;2023-09-19T14:45:06;100745.25;;;19.87;68.87
45403;BME280;47427;51.976;5.326;2023-09-19T14:48:08;100733.03;;;19.72;69.61
45403;BME280;47427;51.976;5.326;2023-09-19T14:51:10;100729.53;;;19.67;69.25
45403;BME280;47427;51.976;5.326;2023-09-19T14:54:14;100763.28;;;19.65;69.27
45403;BME280;47427;51.976;5.326;2023-09-19T14:57:21;100728.81;;;19.53;69.50
45403;BME280;47427;51.976;5.326;2023-09-19T15:00:25;100738.56;;;19.55;69.94
45403;BME280;47427;51.976;5.326;2023-09-19T15:03:28;100746.50;;;19.58;69.84
45403;BME280;47427;51.976;5.326;2023-09-19T15:06:32;100733.28;;;19.49;69.97
45403;BME280;47427;51.976;5.326;2023-09-19T15:09:36;100741.31;;;19.46;70.42
45403;BME280;47427;51.976;5.326;2023-09-19T15:12:38;100744.91;;;19.43;70.56
45403;BME280;47427;51.976;5.326;2023-09-19T15:15:40;100744.97;;;19.37;70.68
45403;BME280;47427;51.976;5.326;2023-09-19T15:18:46;100740.53;;;19.36;70.78
45403;BME280;47427;51.976;5.326;2023-09-19T15:21:52;100751.28;;;19.28;71.29
45403;BME280;47427;51.976;5.326;2023-09-19T15:24:53;100757.47;;;19.29;71.57
45403;BME280;47427;51.976;5.326;2023-09-19T15:27:56;100744.06;;;19.40;71.41
45403;BME280;47427;51.976;5.326;2023-09-19T15:31:19;100761.03;;;19.28;72.11
45403;BME280;47427;51.976;5.326;2023-09-19T15:34:21;100754.00;;;19.22;73.14
45403;BME280;47427;51.976;5.326;2023-09-19T15:37:22;100752.19;;;19.26;73.43
45403;BME280;47427;51.976;5.326;2023-09-19T15:40:26;100750.41;;;19.26;73.10
45403;BME280;47427;51.976;5.326;2023-09-19T15:43:31;100744.19;;;19.26;73.25
45403;BME280;47427;51.976;5.326;2023-09-19T15:46:34;100745.84;;;19.38;73.54
45403;BME280;47427;51.976;5.326;2023-09-19T15:49:38;100745.06;;;19.30;73.37
45403;BME280;47427;51.976;5.326;2023-09-19T15:52:39;100762.06;;;19.13;73.72
45403;BME280;47427;51.976;5.326;2023-09-19T15:55:42;100756.81;;;19.09;74.11
45403;BME280;47427;51.976;5.326;2023-09-19T15:58:47;100753.34;;;18.99;74.50
45403;BME280;47427;51.976;5.326;2023-09-19T16:01:50;100755.22;;;18.91;75.25
45403;BME280;47427;51.976;5.326;2023-09-19T16:04:54;100745.44;;;18.91;75.58
45403;BME280;47427;51.976;5.326;2023-09-19T16:07:57;100749.97;;;18.84;76.33
45403;BME280;47427;51.976;5.326;2023-09-19T16:11:00;100719.81;;;18.87;76.21
45403;BME280;47427;51.976;5.326;2023-09-19T16:14:03;100736.59;;;18.92;76.24
45403;BME280;47427;51.976;5.326;2023-09-19T16:17:06;100744.59;;;18.86;76.39
45403;BME280;47427;51.976;5.326;2023-09-19T16:20:12;100746.31;;;18.95;76.30
45403;BME280;47427;51.976;5.326;2023-09-19T16:23:15;100729.38;;;19.03;76.08
45403;BME280;47427;51.976;5.326;2023-09-19T16:26:18;100725.84;;;19.04;76.09
45403;BME280;47427;51.976;5.326;2023-09-19T16:29:22;100747.13;;;19.04;75.85
45403;BME280;47427;51.976;5.326;2023-09-19T16:32:26;100733.81;;;19.01;75.33
45403;BME280;47427;51.976;5.326;2023-09-19T16:35:29;100746.28;;;18.98;75.72
45403;BME280;47427;51.976;5.326;2023-09-19T16:38:32;100748.06;;;18.97;75.51
45403;BME280;47427;51.976;5.326;2023-09-19T16:41:34;100747.19;;;18.94;75.10
45403;BME280;47427;51.976;5.326;2023-09-19T16:44:37;100747.19;;;18.94;75.91